Time;durP1;ratioP1;P1;durP2;ratioP2;P2;SDS_P1;SDS_P2;PMS_P1;PMS_P2;Temp;Humidity;BMP_temperature;BMP_pressure;BME280_temperature;BME280_humidity;BME280_pressure;Samples;Min_cycle;Max_cycle;Signal;HPM_P1;HPM_P2
2021/10/09 00:00:54;;;;;;;7.20;3.60;;;;;;;5.72;39.29;100903.29;27243;1218;3053129;-75
2021/10/09 00:03:23;;;;;;;7.90;3.60;;;;;;;5.65;39.35;100900.29;27303;1218;3028102;-76
2021/10/09 00:05:52;;;;;;;11.20;3.80;;;;;;;5.64;39.60;100899.07;27262;1218;3049078;-76
2021/10/09 00:08:21;;;;;;;11.90;4.00;;;;;;;5.63;39.37;100901.36;27229;1217;3026487;-73
2021/10/09 00:10:50;;;;;;;10.80;3.70;;;;;;;5.63;39.49;100904.31;27313;1217;3026029;-72
2021/10/09 00:13:19;;;;;;;7.90;3.40;;;;;;;5.60;39.57;100902.96;27290;1217;3051673;-75
2021/10/09 00:15:51;;;;;;;8.40;3.20;;;;;;;5.57;39.49;100896.59;27316;1218;3026094;-72
2021/10/09 00:18:20;;;;;;;14.80;3.30;;;;;;;5.58;39.35;100896.73;27225;1218;3026112;-76
2021/10/09 00:20:49;;;;;;;7.60;3.40;;;;;;;5.49;39.62;100896.03;27250;1218;3051711;-78
2021/10/09 00:23:18;;;;;;;11.30;3.20;;;;;;;5.45;39.79;100891.77;27227;1216;3028784;-75
2021/10/09 00:25:48;;;;;;;7.50;3.10;;;;;;;5.43;39.71;100893.88;27221;1218;3057726;-75
2021/10/09 00:28:17;;;;;;;8.80;3.30;;;;;;;5.39;39.70;100890.80;27279;1216;3028568;-71
2021/10/09 00:30:46;;;;;;;6.30;2.60;;;;;;;5.32;39.80;100888.14;27335;1218;3026192;-76
2021/10/09 00:33:15;;;;;;;7.90;2.90;;;;;;;5.24;39.79;100889.48;27306;1217;3057564;-75
2021/10/09 00:35:44;;;;;;;9.10;2.90;;;;;;;5.26;39.55;100882.52;27285;1218;3026024;-75
2021/10/09 00:38:13;;;;;;;7.00;2.60;;;;;;;5.26;39.53;100884.95;27246;1216;3050793;-76
2021/10/09 00:40:42;;;;;;;6.00;2.70;;;;;;;5.24;39.63;100888.45;27289;1213;3028354;-79
2021/10/09 00:43:11;;;;;;;9.20;3.30;;;;;;;5.16;39.66;100887.52;27323;1217;3049878;-74
2021/10/09 00:45:56;;;;;;;9.80;3.60;;;;;;;5.16;39.79;100889.77;27241;1218;3026428;-75
2021/10/09 00:48:25;;;;;;;10.90;2.90;;;;;;;5.14;39.81;100891.90;27260;1217;3048772;-72
2021/10/09 00:50:54;;;;;;;8.00;2.70;;;;;;;5.10;39.59;100891.96;27267;1216;3026638;-74
2021/10/09 00:53:23;;;;;;;6.20;2.70;;;;;;;5.12;39.50;100895.23;27300;1216;3025758;-74
2021/10/09 00:55:52;;;;;;;10.50;3.20;;;;;;;5.15;39.45;100891.89;27275;1217;3048211;-76
2021/10/09 00:58:22;;;;;;;7.50;2.40;;;;;;;5.12;39.74;100898.02;27274;1217;3028044;-73
2021/10/09 01:00:52;;;;;;;11.40;2.80;;;;;;;5.01;39.88;100892.10;27297;1216;3026398;-74
2021/10/09 01:03:21;;;;;;;18.50;2.60;;;;;;;4.91;40.07;100894.50;27289;1216;3026308;-71
2021/10/09 01:05:51;;;;;;;7.60;2.40;;;;;;;4.92;40.00;100897.10;27292;1209;3025959;-74
2021/10/09 01:08:20;;;;;;;7.50;2.10;;;;;;;4.96;39.89;100894.61;27260;1218;3026709;-74
2021/10/09 01:10:50;;;;;;;10.40;2.90;;;;;;;4.91;40.09;100897.45;27270;1216;3054859;-76
2021/10/09 01:13:19;;;;;;;7.30;2.60;;;;;;;4.88;40.18;100900.09;27222;1219;3028800;-75
2021/10/09 01:15:49;;;;;;;5.90;2.20;;;;;;;4.87;40.39;100900.30;27247;1216;3053575;-74
2021/10/09 01:18:20;;;;;;;9.50;2.40;;;;;;;4.87;40.15;100899.07;27241;1209;3026675;-78
2021/10/09 01:21:02;;;;;;;6.70;3.00;;;;;;;4.85;40.16;100895.46;27264;1216;3051979;-74
2021/10/09 01:23:35;;;;;;;8.00;2.30;;;;;;;4.84;40.23;100893.05;27296;1216;3051561;-73
2021/10/09 01:26:09;;;;;;;12.20;2.60;;;;;;;4.86;40.20;100893.70;27339;1218;3026573;-74
2021/10/09 01:28:43;;;;;;;5.50;2.50;;;;;;;4.74;40.50;100893.34;27299;1217;3049066;-73
2021/10/09 01:31:13;;;;;;;5.80;2.50;;;;;;;4.78;40.45;100891.38;27376;1218;3052390;-74
2021/10/09 01:33:42;;;;;;;6.70;2.40;;;;;;;4.71;40.32;100893.39;27329;1208;3026052;-74
2021/10/09 01:36:11;;;;;;;13.00;3.80;;;;;;;4.71;40.62;100896.16;27287;1216;3048877;-76
2021/10/09 01:38:50;;;;;;;6.60;2.30;;;;;;;4.61;40.77;100894.23;27305;1216;3052709;-77
2021/10/09 01:41:21;;;;;;;5.80;2.40;;;;;;;4.69;40.43;100893.77;27356;1219;3051026;-73
2021/10/09 01:43:50;;;;;;;10.20;3.00;;;;;;;4.76;40.13;100888.81;27277;1216;3027120;-75
2021/10/09 01:46:19;;;;;;;7.60;2.70;;;;;;;4.69;40.23;100890.11;27350;1219;3025925;-75
2021/10/09 01:48:48;;;;;;;6.90;2.70;;;;;;;4.69;40.18;100891.34;27319;1219;3050009;-75
2021/10/09 01:51:17;;;;;;;7.90;2.80;;;;;;;4.66;40.40;100889.98;27331;1218;3026249;-76
2021/10/09 01:53:46;;;;;;;5.70;2.50;;;;;;;4.66;40.27;100889.28;27329;1217;3054697;-75
2021/10/09 01:56:16;;;;;;;7.90;2.80;;;;;;;4.56;40.53;100891.85;27334;1216;3026761;-77
2021/10/09 01:58:45;;;;;;;7.10;2.50;;;;;;;4.57;40.44;100889.05;27332;1216;3026454;-75
2021/10/09 02:01:21;;;;;;;7.50;2.50;;;;;;;4.56;40.27;100892.37;27289;1218;3052552;-73
2021/10/09 02:03:50;;;;;;;9.10;2.20;;;;;;;4.52;40.73;100894.51;27331;1216;3026545;-73
2021/10/09 02:06:20;;;;;;;8.70;2.20;;;;;;;4.47;40.77;100896.65;27338;1216;3049157;-75
2021/10/09 02:08:51;;;;;;;8.60;2.80;;;;;;;4.49;40.84;100895.40;27303;1216;3027795;-72
2021/10/09 02:11:23;;;;;;;8.10;2.40;;;;;;;4.44;40.84;100892.70;27324;1218;3026003;-76
2021/10/09 02:14:22;;;;;;;5.60;2.20;;;;;;;4.50;40.93;100891.92;27334;1216;3049012;-73
2021/10/09 02:27:13;;;;;;;5.70;2.50;;;;;;;4.50;40.77;100893.13;27281;1216;3026412;-78
2021/10/09 02:29:44;;;;;;;6.80;2.10;;;;;;;4.48;40.71;100892.30;27272;1216;3026343;-76
2021/10/09 02:32:13;;;;;;;4.40;1.90;;;;;;;4.48;40.62;100892.48;27268;1218;3026296;-75
2021/10/09 02:34:43;;;;;;;5.60;2.10;;;;;;;4.43;41.05;100894.61;27322;1216;3050020;-72
2021/10/09 02:37:12;;;;;;;6.90;2.50;;;;;;;4.40;41.18;100893.97;27236;1216;3026408;-71
2021/10/09 02:39:44;;;;;;;7.20;2.20;;;;;;;4.34;41.26;100896.63;27284;1216;3027143;-75
2021/10/09 02:42:13;;;;;;;12.90;2.60;;;;;;;4.33;41.42;100896.64;27283;1216;3026502;-73
2021/10/09 02:44:43;;;;;;;4.60;2.40;;;;;;;4.34;41.38;100896.12;27274;1219;3027126;-76
2021/10/09 02:47:14;;;;;;;8.10;2.50;;;;;;;4.34;41.49;100897.15;27338;1216;3026297;-73
2021/10/09 02:49:44;;;;;;;5.00;2.20;;;;;;;4.31;41.72;100901.00;27295;1216;3026028;-76
2021/10/09 02:52:13;;;;;;;4.90;2.20;;;;;;;4.27;41.75;100895.52;27313;1218;3026582;-74
2021/10/09 02:54:43;;;;;;;6.40;2.00;;;;;;;4.22;42.07;100897.48;27320;1216;3057380;-76
2021/10/09 02:57:12;;;;;;;9.20;2.40;;;;;;;4.25;41.83;100890.15;27316;1216;3025832;-78
2021/10/09 02:59:44;;;;;;;5.80;2.10;;;;;;;4.22;42.29;100894.35;27299;1216;3050993;-75
2021/10/09 03:02:13;;;;;;;5.50;2.40;;;;;;;4.20;42.20;100894.02;27286;1217;3028150;-75
2021/10/09 03:04:42;;;;;;;4.60;2.20;;;;;;;4.25;41.81;100892.59;27360;1217;3054399;-71
2021/10/09 03:07:11;;;;;;;5.60;2.30;;;;;;;4.23;42.10;100894.86;27335;1217;3026493;-73
2021/10/09 03:09:40;;;;;;;5.10;2.40;;;;;;;4.17;42.34;100894.05;27290;1217;3046990;-74
2021/10/09 03:12:10;;;;;;;9.60;2.30;;;;;;;4.12;42.46;100887.88;27326;1218;3026280;-76
2021/10/09 03:14:41;;;;;;;5.40;2.20;;;;;;;4.03;42.52;100889.35;27331;1218;3027037;-78
2021/10/09 03:17:10;;;;;;;6.80;2.40;;;;;;;4.06;42.34;100891.59;27320;1218;3026046;-75
2021/10/09 03:19:40;;;;;;;7.40;2.50;;;;;;;4.03;42.56;100892.98;27343;1216;3026566;-74
2021/10/09 03:22:09;;;;;;;7.20;2.30;;;;;;;4.02;42.50;100889.02;27403;1216;3026011;-71
2021/10/09 03:24:41;;;;;;;12.10;2.20;;;;;;;4.02;42.24;100886.25;27409;1216;3055538;-71
2021/10/09 03:27:12;;;;;;;6.00;2.00;;;;;;;3.95;42.65;100879.39;27358;1216;3028293;-75
2021/10/09 03:29:42;;;;;;;6.30;2.20;;;;;;;3.98;42.58;100883.50;27336;1219;3025940;-78
2021/10/09 03:32:11;;;;;;;7.90;2.20;;;;;;;3.96;42.61;100883.71;27268;1216;3026351;-74
2021/10/09 03:34:41;;;;;;;6.30;2.10;;;;;;;3.96;42.45;100888.92;27278;1216;3026068;-75
2021/10/09 03:37:10;;;;;;;8.70;2.00;;;;;;;3.91;42.71;100887.75;27246;1217;3051590;-76
2021/10/09 03:39:43;;;;;;;6.10;2.30;;;;;;;3.96;42.23;100889.09;27335;1217;3026339;-75
2021/10/09 03:42:17;;;;;;;4.60;2.10;;;;;;;3.94;42.48;100887.90;27342;1216;3026484;-74
2021/10/09 03:47:53;;;;;;;5.30;2.30;;;;;;;3.89;42.69;100883.61;27306;1216;3054342;-72
2021/10/09 03:52:51;;;;;;;6.40;2.00;;;;;;;3.84;42.73;100881.23;27290;1210;3026103;-77
2021/10/09 03:55:21;;;;;;;4.70;2.00;;;;;;;3.74;42.67;100878.39;27295;1209;3026479;-75
2021/10/09 03:57:53;;;;;;;6.50;1.80;;;;;;;3.69;42.98;100876.00;27325;1216;3030329;-73
2021/10/09 04:00:23;;;;;;;6.50;2.00;;;;;;;3.66;42.87;100876.04;27599;1216;3026840;-74
2021/10/09 04:02:57;;;;;;;;;;;;;;;3.68;42.92;100879.30;27408;1216;3069531;-73
2021/10/09 04:05:26;;;;;;;5.30;2.20;;;;;;;3.62;43.18;100887.17;27365;1218;3028670;-73
2021/10/09 04:07:55;;;;;;;7.40;2.20;;;;;;;3.61;43.46;100896.19;27341;1216;3050530;-73
2021/10/09 04:10:24;;;;;;;7.40;2.10;;;;;;;3.63;43.35;100895.13;27357;1209;3026736;-76
2021/10/09 04:12:55;;;;;;;4.80;2.10;;;;;;;3.64;43.40;100898.23;27468;1216;3056427;-71
2021/10/09 04:15:25;;;;;;;3.70;2.00;;;;;;;3.66;43.17;100900.65;27335;1216;3028217;-71
2021/10/09 04:17:55;;;;;;;8.60;2.60;;;;;;;3.70;43.37;100903.20;27300;1216;3027586;-76
2021/10/09 04:20:25;;;;;;;3.70;2.20;;;;;;;3.74;43.10;100904.39;27323;1216;3028009;-72
2021/10/09 04:22:55;;;;;;;5.70;2.10;;;;;;;3.79;42.99;100905.38;27352;1216;3026066;-75
2021/10/09 04:25:24;;;;;;;5.40;2.00;;;;;;;3.80;42.96;100907.80;27328;1216;3026114;-75
2021/10/09 04:27:52;;;;;;;5.90;2.30;;;;;;;3.81;42.81;100903.27;27362;1216;3050789;-73
2021/10/09 04:30:21;;;;;;;4.10;2.30;;;;;;;3.77;42.87;100906.61;27285;1216;3025819;-73
2021/10/09 04:32:50;;;;;;;5.00;2.20;;;;;;;3.76;42.81;100911.64;27256;1217;3067056;-74
2021/10/09 04:35:20;;;;;;;5.70;2.20;;;;;;;3.76;43.08;100909.05;27311;1208;3025838;-76
2021/10/09 04:37:49;;;;;;;8.20;2.30;;;;;;;3.84;42.69;100917.11;27277;1216;3028793;-75
2021/10/09 04:40:18;;;;;;;14.70;2.30;;;;;;;3.83;42.84;100914.35;27293;1216;3028414;-75
2021/10/09 04:42:48;;;;;;;6.60;2.00;;;;;;;3.87;42.95;100917.96;27292;1216;3048961;-76
2021/10/09 04:45:17;;;;;;;5.60;2.20;;;;;;;3.87;42.82;100916.73;27258;1210;3027080;-74
2021/10/09 04:47:50;;;;;;;7.10;2.40;;;;;;;3.88;43.10;100915.00;27282;1216;3068633;-74
2021/10/09 04:50:19;;;;;;;7.00;2.40;;;;;;;3.94;43.04;100919.63;27260;1218;3025581;-73
2021/10/09 04:52:48;;;;;;;8.70;2.50;;;;;;;3.93;42.95;100919.47;27307;1216;3028418;-76
2021/10/09 04:55:18;;;;;;;9.70;2.20;;;;;;;4.06;42.84;100916.55;27285;1216;3026267;-75
2021/10/09 04:57:46;;;;;;;7.10;2.00;;;;;;;4.09;42.61;100919.29;27288;1216;3047774;-73
2021/10/09 05:00:15;;;;;;;5.80;2.30;;;;;;;4.13;42.60;100915.60;27291;1216;3027046;-76
2021/10/09 05:02:44;;;;;;;7.20;2.20;;;;;;;4.16;42.77;100913.50;27286;1216;3068569;-75
2021/10/09 05:05:14;;;;;;;6.20;2.60;;;;;;;4.19;42.79;100914.50;27310;1216;3028244;-79
2021/10/09 05:07:43;;;;;;;11.60;2.80;;;;;;;4.24;42.80;100912.72;27261;1216;3026348;-76
2021/10/09 05:10:14;;;;;;;7.30;2.60;;;;;;;4.25;42.71;100913.39;27270;1216;3027583;-76
2021/10/09 05:12:49;;;;;;;9.30;2.80;;;;;;;4.30;42.62;100916.81;27288;1218;3058241;-78
2021/10/09 05:15:19;;;;;;;5.10;2.30;;;;;;;4.32;42.64;100914.52;27310;1216;3025861;-74
2021/10/09 05:17:48;;;;;;;18.70;2.40;;;;;;;4.40;42.69;100918.59;27290;1216;3027400;-77
2021/10/09 05:20:18;;;;;;;6.20;2.70;;;;;;;4.47;42.58;100912.27;27266;1216;3058153;-76
2021/10/09 05:22:48;;;;;;;6.20;2.50;;;;;;;4.51;42.52;100913.77;27284;1216;3026478;-74
2021/10/09 05:25:17;;;;;;;7.50;2.50;;;;;;;4.56;42.77;100909.54;27291;1216;3027184;-74
2021/10/09 05:27:55;;;;;;;5.40;2.20;;;;;;;4.64;42.37;100902.84;27308;1216;3026707;-74
2021/10/09 05:30:26;;;;;;;5.30;2.20;;;;;;;4.67;42.29;100908.54;27322;1216;3068514;-76
2021/10/09 05:35:44;;;;;;;5.40;2.30;;;;;;;4.76;42.42;100902.17;27311;1216;3051571;-76
2021/10/09 05:38:14;;;;;;;8.60;2.70;;;;;;;4.84;42.44;100899.45;27306;1216;3026374;-72
2021/10/09 05:40:44;;;;;;;10.20;3.00;;;;;;;4.91;42.41;100893.98;27277;1218;3026706;-74
2021/10/09 05:43:15;;;;;;;11.00;2.60;;;;;;;4.96;42.87;100890.61;27219;1216;3026546;-76
2021/10/09 05:45:44;;;;;;;11.80;3.70;;;;;;;5.07;42.71;100892.01;27284;1216;3027466;-75
2021/10/09 05:48:14;;;;;;;7.10;2.70;;;;;;;5.13;42.58;100888.44;27290;1210;3026628;-73
2021/10/09 05:51:29;;;;;;;11.20;2.70;;;;;;;5.20;42.61;100889.91;27299;1216;3028534;-76
2021/10/09 06:59:58;;;;;;;7.80;2.40;;;;;;;7.62;39.40;100888.27;27265;1216;3051441;-74
2021/10/09 07:02:28;;;;;;;12.10;2.70;;;;;;;7.77;39.39;100892.76;27294;1216;3028020;-77
2021/10/09 07:04:57;;;;;;;11.70;3.60;;;;;;;7.84;39.14;100892.40;27267;1216;3026552;-77
2021/10/09 07:07:27;;;;;;;7.90;3.20;;;;;;;7.87;39.03;100890.56;27270;1219;3054561;-77
2021/10/09 07:10:09;;;;;;;13.40;3.10;;;;;;;8.02;38.65;100886.34;27311;1216;3053925;-72
2021/10/09 07:12:38;;;;;;;11.50;3.50;;;;;;;8.08;38.23;100879.20;27335;1216;3026313;-76
2021/10/09 07:15:09;;;;;;;12.40;3.30;;;;;;;8.13;38.16;100881.84;27388;1217;3026197;-73
2021/10/09 07:17:39;;;;;;;16.20;3.00;;;;;;;8.33;37.77;100873.08;27261;1216;3027662;-75
2021/10/09 07:20:10;;;;;;;11.90;3.40;;;;;;;8.47;37.24;100869.39;27263;1216;3026228;-74
2021/10/09 07:22:42;;;;;;;15.20;3.80;;;;;;;8.59;36.95;100872.54;27289;1216;3026467;-76
2021/10/09 07:25:11;;;;;;;13.20;4.10;;;;;;;8.67;37.06;100868.80;27262;1216;3026765;-80
2021/10/09 07:27:41;;;;;;;11.80;3.60;;;;;;;8.74;36.65;100867.36;27320;1210;3026220;-73
2021/10/09 07:30:10;;;;;;;8.40;3.70;;;;;;;8.79;36.59;100864.75;27263;1216;3028100;-79
2021/10/09 07:32:39;;;;;;;12.30;3.70;;;;;;;8.93;36.58;100866.95;27242;1216;3051657;-72
2021/10/09 07:35:08;;;;;;;11.60;3.30;;;;;;;9.03;36.29;100863.14;27382;1216;3026147;-74
2021/10/09 07:37:38;;;;;;;14.80;4.70;;;;;;;9.15;35.86;100859.42;27279;1216;3058178;-71
2021/10/09 07:40:09;;;;;;;17.70;4.80;;;;;;;9.28;35.32;100858.33;27320;1209;3026988;-76
2021/10/09 07:42:39;;;;;;;15.70;4.90;;;;;;;9.42;34.71;100857.50;27327;1218;3026309;-77
2021/10/09 07:45:09;;;;;;;14.70;4.40;;;;;;;9.64;34.82;100859.91;27343;1216;3027469;-76
2021/10/09 07:47:39;;;;;;;16.60;5.20;;;;;;;9.75;33.82;100854.27;27290;1216;3048789;-77
2021/10/09 07:50:08;;;;;;;14.90;5.90;;;;;;;9.84;32.97;100855.90;27325;1216;3027948;-77
2021/10/09 07:52:38;;;;;;;16.80;5.70;;;;;;;9.94;32.73;100858.34;27264;1216;3058547;-75
2021/10/09 07:55:08;;;;;;;13.70;5.20;;;;;;;10.06;32.78;100859.66;27239;1216;3026397;-73
2021/10/09 07:57:38;;;;;;;18.10;5.70;;;;;;;10.16;32.62;100851.78;27290;1216;3050416;-71
2021/10/09 08:00:11;;;;;;;21.50;6.60;;;;;;;10.25;32.11;100853.35;27308;1216;3026266;-76
2021/10/09 08:02:49;;;;;;;13.10;6.90;;;;;;;10.34;30.92;100848.13;27288;1209;3052394;-75
2021/10/09 08:05:19;;;;;;;19.30;6.70;;;;;;;10.43;30.63;100850.10;27288;1216;3052885;-76
2021/10/09 08:07:48;;;;;;;13.30;7.00;;;;;;;10.52;30.53;100847.30;27285;1216;3027409;-73
2021/10/09 08:10:17;;;;;;;20.90;7.40;;;;;;;10.58;30.05;100840.90;27214;1216;3026529;-77
2021/10/09 08:12:46;;;;;;;20.40;6.90;;;;;;;10.67;29.83;100841.45;27255;1216;3051972;-71
2021/10/09 08:15:15;;;;;;;16.90;5.80;;;;;;;10.79;29.61;100838.92;27315;1216;3027800;-71
2021/10/09 08:17:44;;;;;;;18.60;6.30;;;;;;;10.89;29.56;100841.31;27231;1216;3049591;-76
2021/10/09 08:20:13;;;;;;;18.50;6.50;;;;;;;10.93;29.40;100843.60;27344;1216;3025655;-76
2021/10/09 08:22:55;;;;;;;19.50;6.50;;;;;;;10.98;29.43;100839.52;27338;1216;3055456;-76
2021/10/09 08:25:44;;;;;;;22.60;7.20;;;;;;;11.05;28.83;100839.94;27306;1216;3049335;-78
2021/10/09 08:36:36;;;;;;;19.20;6.60;;;;;;;11.42;27.87;100837.73;27286;1216;3048868;-74
2021/10/09 08:39:07;;;;;;;18.60;6.30;;;;;;;11.62;28.07;100835.48;27287;1216;3026455;-76
2021/10/09 08:41:37;;;;;;;20.20;6.60;;;;;;;11.83;27.89;100835.44;27301;1216;3025811;-77
2021/10/09 08:44:06;;;;;;;14.10;6.10;;;;;;;11.89;26.61;100833.79;27288;1210;3025913;-71
2021/10/09 08:46:38;;;;;;;21.00;6.30;;;;;;;11.94;25.93;100840.42;27319;1217;3051888;-75
2021/10/09 08:49:07;;;;;;;25.00;5.90;;;;;;;11.93;24.31;100840.45;27321;1218;3028153;-72
2021/10/09 08:51:38;;;;;;;13.80;5.80;;;;;;;11.97;24.02;100844.33;27355;1216;3050775;-75
2021/10/09 08:54:11;;;;;;;11.60;5.80;;;;;;;12.07;24.10;100835.10;27335;1216;3026862;-73
2021/10/09 08:56:43;;;;;;;18.80;6.40;;;;;;;12.19;24.32;100835.45;27312;1216;3026927;-73
2021/10/09 09:02:19;;;;;;;19.50;5.30;;;;;;;12.30;24.48;100834.78;27301;1216;3049229;-75
2021/10/09 09:05:10;;;;;;;12.90;5.10;;;;;;;12.33;24.23;100829.39;27292;1216;3052362;-73
2021/10/09 09:33:22;;;;;;;9.10;3.30;;;;;;;13.22;22.64;100815.43;27282;1216;3070644;-73
2021/10/09 09:41:23;;;;;;;6.60;2.20;;;;;;;13.75;23.05;100803.27;27273;1216;3053089;-75
2021/10/09 09:44:04;;;;;;;10.90;3.00;;;;;;;13.72;22.45;100795.65;27277;1216;3055846;-74
2021/10/09 09:46:33;;;;;;;18.40;3.20;;;;;;;13.70;22.45;100801.92;27253;1216;3025871;-71
2021/10/09 09:49:02;;;;;;;14.60;3.60;;;;;;;13.75;22.28;100801.65;27290;1218;3026137;-76
2021/10/09 09:51:35;;;;;;;19.30;3.30;;;;;;;13.79;22.50;100799.16;27293;1218;3058264;-71
2021/10/09 09:54:04;;;;;;;8.90;3.00;;;;;;;13.90;22.42;100791.21;27269;1216;3028031;-72
2021/10/09 09:56:34;;;;;;;9.90;3.00;;;;;;;13.82;21.85;100790.38;27261;1216;3026273;-71
2021/10/09 09:59:03;;;;;;;10.30;2.80;;;;;;;13.92;21.66;100792.30;27299;1209;3026443;-71
2021/10/09 10:01:33;;;;;;;13.20;2.60;;;;;;;13.99;21.45;100790.17;27231;1216;3049610;-72
2021/10/09 10:04:03;;;;;;;9.20;2.40;;;;;;;14.09;21.81;100784.91;27242;1216;3028153;-68
2021/10/09 10:06:33;;;;;;;13.60;2.50;;;;;;;14.23;21.30;100786.77;27234;1216;3027898;-73
2021/10/09 10:09:02;;;;;;;6.40;2.20;;;;;;;14.27;21.54;100786.56;27240;1216;3028143;-74
2021/10/09 10:11:31;;;;;;;8.30;2.20;;;;;;;14.17;21.60;100787.44;27256;1216;3026526;-71
2021/10/09 10:14:00;;;;;;;14.70;2.70;;;;;;;14.22;21.64;100789.31;27322;1216;3028510;-72
2021/10/09 10:16:29;;;;;;;13.70;2.50;;;;;;;14.13;20.90;100782.91;27250;1217;3068874;-72
2021/10/09 10:18:58;;;;;;;12.00;2.20;;;;;;;14.18;21.24;100779.83;27249;1216;3028077;-75
2021/10/09 10:21:44;;;;;;;8.80;2.20;;;;;;;14.24;21.24;100781.64;27226;1216;3053476;-75
2021/10/09 10:24:44;;;;;;;11.70;2.20;;;;;;;14.31;21.33;100774.91;27222;1216;3068910;-73
2021/10/09 10:27:33;;;;;;;6.20;2.50;;;;;;;14.29;21.59;100769.70;27218;1218;3048938;-73
2021/10/09 10:30:17;;;;;;;11.30;2.40;;;;;;;14.36;21.21;100770.94;27213;1218;3051654;-70
2021/10/09 10:32:55;;;;;;;12.70;2.40;;;;;;;14.39;20.91;100769.50;27218;1218;3055528;-71
2021/10/09 10:35:30;;;;;;;14.40;3.00;;;;;;;14.52;20.72;100771.45;27241;1219;3058902;-76
2021/10/09 10:38:21;;;;;;;6.00;2.30;;;;;;;14.55;20.94;100773.59;27231;1218;3048974;-73
2021/10/09 10:40:59;;;;;;;7.80;2.00;;;;;;;14.64;20.99;100763.00;27310;1218;3052817;-73
2021/10/09 10:43:33;;;;;;;17.00;2.60;;;;;;;14.63;20.66;100764.15;27314;1218;3051186;-76
2021/10/09 10:48:58;;;;;;;7.80;2.10;;;;;;;14.69;20.48;100767.68;27207;1218;3051205;-74
2021/10/09 10:51:39;;;;;;;14.40;2.50;;;;;;;14.78;20.03;100763.82;27258;1218;3052617;-76
2021/10/09 10:57:00;;;;;;;7.80;2.20;;;;;;;14.84;20.14;100766.51;27256;1218;3056442;-71
2021/10/09 10:59:35;;;;;;;11.70;2.30;;;;;;;14.74;20.51;100766.50;27270;1218;3054052;-75
2021/10/09 11:02:31;;;;;;;9.50;2.30;;;;;;;14.93;20.43;100767.38;27265;1218;3052662;-70
2021/10/09 11:05:03;;;;;;;9.30;2.00;;;;;;;14.87;20.34;100764.86;27241;1216;3052327;-71
2021/10/09 11:07:35;;;;;;;10.80;2.20;;;;;;;14.73;20.97;100767.27;27275;1216;3026007;-73
2021/10/09 11:10:06;;;;;;;15.10;2.70;;;;;;;14.72;20.60;100766.27;27270;1216;3026210;-70
2021/10/09 11:12:39;;;;;;;14.90;2.50;;;;;;;14.63;21.26;100765.19;27281;1216;3027178;-69
2021/10/09 11:15:16;;;;;;;20.90;3.20;;;;;;;14.63;21.62;100757.98;27252;1216;3054813;-71
2021/10/09 11:18:03;;;;;;;8.40;2.20;;;;;;;14.61;21.44;100761.08;27289;1216;3058981;-73
2021/10/09 11:20:41;;;;;;;11.50;2.30;;;;;;;14.63;21.60;100760.25;27260;1216;3051792;-72
2021/10/09 11:23:11;;;;;;;12.00;2.70;;;;;;;14.67;21.42;100760.38;27269;1216;3052208;-75
2021/10/09 11:25:45;;;;;;;6.40;2.60;;;;;;;14.56;21.50;100759.23;27229;1216;3026050;-68
2021/10/09 11:28:20;;;;;;;17.30;3.00;;;;;;;14.60;21.27;100759.90;27249;1216;3026513;-72
2021/10/09 11:30:49;;;;;;;8.40;2.70;;;;;;;14.49;21.26;100759.79;27287;1216;3048624;-73
2021/10/09 11:33:25;;;;;;;8.70;2.20;;;;;;;14.48;21.14;100761.10;27281;1216;3026350;-69
2021/10/09 11:35:55;;;;;;;13.30;2.30;;;;;;;14.44;21.31;100753.23;27252;1216;3067976;-75
2021/10/09 11:38:27;;;;;;;8.80;2.70;;;;;;;14.29;20.67;100749.29;27256;1216;3027391;-73
2021/10/09 11:41:00;;;;;;;10.60;2.80;;;;;;;14.24;20.90;100746.90;27259;1216;3026853;-73
2021/10/09 11:55:20;;;;;;;11.00;2.90;;;;;;;13.76;21.27;100745.47;27284;1216;3053229;-72
2021/10/09 11:57:50;;;;;;;14.80;3.10;;;;;;;13.81;21.69;100745.20;27232;1217;3070446;-78
2021/10/09 12:00:36;;;;;;;11.20;2.90;;;;;;;13.80;21.68;100745.43;27261;1209;3026013;-74
2021/10/09 12:03:32;;;;;;;16.40;3.10;;;;;;;13.78;22.56;100744.27;27296;1216;3051395;-70
2021/10/09 12:06:09;;;;;;;11.40;2.80;;;;;;;13.72;23.11;100745.84;27241;1218;3069727;-74
2021/10/09 12:08:53;;;;;;;6.70;2.30;;;;;;;13.60;23.12;100747.89;27215;1217;3051678;-74
2021/10/09 12:11:24;;;;;;;9.40;2.70;;;;;;;13.55;23.08;100751.64;27223;1217;3055107;-76
2021/10/09 12:14:04;;;;;;;5.30;2.60;;;;;;;13.48;23.21;100743.73;27258;1216;3026530;-73
2021/10/09 12:16:34;;;;;;;7.10;2.60;;;;;;;13.48;23.05;100740.23;27216;1216;3058755;-75
2021/10/09 12:19:07;;;;;;;10.10;2.70;;;;;;;13.47;23.46;100734.31;27213;1216;3026372;-72
2021/10/09 12:21:49;;;;;;;12.00;2.90;;;;;;;13.37;23.46;100739.20;27299;1216;3050497;-71
2021/10/09 12:24:23;;;;;;;12.90;2.50;;;;;;;13.33;23.79;100734.85;27242;1216;3053324;-76
2021/10/09 12:27:12;;;;;;;9.70;2.40;;;;;;;13.29;23.82;100732.92;27309;1216;3068289;-75
2021/10/09 12:30:04;;;;;;;9.70;3.20;;;;;;;13.29;23.66;100723.61;27289;1216;3049265;-76
2021/10/09 12:32:47;;;;;;;11.80;2.50;;;;;;;13.16;23.29;100713.21;27246;1216;3054898;-71
2021/10/09 12:35:30;;;;;;;20.10;2.80;;;;;;;13.08;22.69;100710.94;27227;1218;3054536;-73
2021/10/09 12:38:09;;;;;;;9.40;2.40;;;;;;;13.11;22.47;100704.84;27236;1216;3058216;-74
2021/10/09 12:40:39;;;;;;;12.50;2.40;;;;;;;13.03;22.36;100692.36;27248;1216;3051176;-71
2021/10/09 12:43:12;;;;;;;6.90;2.40;;;;;;;13.03;22.13;100686.04;27273;1216;3026320;-75
2021/10/09 12:45:41;;;;;;;10.70;2.60;;;;;;;12.98;21.78;100678.23;27239;1216;3026400;-75
2021/10/09 12:48:10;;;;;;;7.10;2.40;;;;;;;12.98;22.04;100679.09;27231;1216;3026913;-67
2021/10/09 12:50:41;;;;;;;6.90;2.50;;;;;;;12.98;22.29;100668.89;27266;1209;3026219;-76
2021/10/09 12:53:10;;;;;;;10.80;2.80;;;;;;;12.90;23.01;100667.17;27217;1216;3050846;-72
2021/10/09 12:55:40;;;;;;;7.80;2.70;;;;;;;12.92;23.50;100661.46;27256;1216;3028913;-72
2021/10/09 12:58:09;;;;;;;12.50;3.40;;;;;;;12.84;24.04;100658.36;27226;1216;3054761;-71
2021/10/09 13:00:38;;;;;;;10.00;2.70;;;;;;;12.80;23.89;100661.37;27240;1216;3026866;-76
2021/10/09 13:03:09;;;;;;;9.10;2.50;;;;;;;12.74;23.85;100663.46;27205;1216;3051141;-71
2021/10/09 13:05:39;;;;;;;10.30;2.60;;;;;;;12.80;24.24;100669.45;27253;1216;3026842;-75
2021/10/09 13:08:09;;;;;;;10.50;3.10;;;;;;;12.81;24.21;100680.12;27210;1216;3025771;-72
2021/10/09 13:10:40;;;;;;;11.10;2.90;;;;;;;12.81;24.42;100685.07;27225;1216;3028012;-70
2021/10/09 13:13:10;;;;;;;5.30;2.50;;;;;;;12.80;24.48;100690.73;27261;1216;3054757;-71
2021/10/09 13:15:39;;;;;;;9.40;2.60;;;;;;;12.81;24.69;100692.79;27238;1216;3026009;-72
2021/10/09 13:18:08;;;;;;;13.00;3.30;;;;;;;12.77;24.62;100696.17;27251;1216;3025772;-71
2021/10/09 13:20:37;;;;;;;14.60;3.80;;;;;;;12.75;24.82;100696.41;27276;1218;3051622;-74
2021/10/09 13:23:07;;;;;;;16.70;3.50;;;;;;;12.77;24.65;100697.55;27376;1216;3026197;-74
2021/10/09 13:25:36;;;;;;;18.60;3.30;;;;;;;12.74;24.57;100700.17;27516;1216;3028131;-71
2021/10/09 13:28:05;;;;;;;10.10;3.50;;;;;;;12.83;24.33;100695.69;27512;1216;3052209;-73
2021/10/09 13:30:34;;;;;;;15.30;3.60;;;;;;;12.75;23.94;100698.17;27439;1209;3026031;-72
2021/10/09 13:33:03;;;;;;;8.00;3.10;;;;;;;12.69;23.82;100703.59;27418;1216;3048957;-70
2021/10/09 13:35:32;;;;;;;13.60;3.60;;;;;;;12.73;23.70;100704.09;27392;1216;3026277;-70
2021/10/09 13:38:02;;;;;;;15.70;4.20;;;;;;;12.74;23.55;100705.47;27255;1216;3058186;-75
2021/10/09 13:40:31;;;;;;;18.40;3.60;;;;;;;12.64;23.38;100703.49;27243;1216;3026106;-78
2021/10/09 13:43:00;;;;;;;14.90;4.10;;;;;;;12.64;23.21;100693.45;27239;1216;3027119;-73
2021/10/09 13:45:29;;;;;;;11.70;3.80;;;;;;;12.58;22.59;100692.34;27286;1218;3055750;-71
2021/10/09 13:47:59;;;;;;;15.00;3.90;;;;;;;12.58;22.04;100690.73;27290;1216;3026560;-72
2021/10/09 13:50:33;;;;;;;12.20;4.00;;;;;;;12.58;21.93;100694.28;27271;1216;3027881;-71
2021/10/09 13:53:02;;;;;;;10.50;3.70;;;;;;;12.58;21.77;100690.39;27248;1216;3054869;-79
2021/10/09 13:55:31;;;;;;;15.20;4.50;;;;;;;12.55;22.19;100687.74;27236;1202;3026191;-73